createdAt,value
2019-05-01T00:01:44.093Z,96357.77
2019-05-01T00:04:19.887Z,96363.31
2019-05-01T00:06:55.913Z,96359.89
2019-05-01T00:09:24.437Z,96353.42
2019-05-01T00:11:52.926Z,96351.78
2019-05-01T00:14:21.543Z,96349.92
2019-05-01T00:16:50.265Z,96345.59
2019-05-01T00:19:18.828Z,96346.78
2019-05-01T00:21:47.310Z,96339.06
2019-05-01T00:24:15.819Z,96334.73
2019-05-01T00:26:44.295Z,96334.93
2019-05-01T00:29:12.816Z,96331.41
2019-05-01T00:31:41.290Z,96324.73
2019-05-01T00:34:09.798Z,96325.46
2019-05-01T00:36:38.258Z,96328.15
2019-05-01T00:39:08.180Z,96325.57
2019-05-01T00:41:36.641Z,96321.88
2019-05-01T00:44:05.195Z,96319.55
2019-05-01T00:46:33.688Z,96319.00
2019-05-01T00:49:02.190Z,96314.07
2019-05-01T00:51:30.673Z,96305.91
2019-05-01T00:53:59.159Z,96312.63
2019-05-01T00:56:29.286Z,96311.28
2019-05-01T00:58:59.381Z,96297.02
2019-05-01T01:01:35.265Z,96303.08
2019-05-01T01:04:03.810Z,96297.30
2019-05-01T01:06:32.279Z,96297.77
2019-05-01T01:09:00.762Z,96292.29
2019-05-01T01:11:29.334Z,96295.14
2019-05-01T01:13:57.832Z,96296.19
2019-05-01T01:16:26.321Z,96300.36
2019-05-01T01:18:54.799Z,96303.14
2019-05-01T01:21:23.334Z,96302.36
2019-05-01T01:23:51.963Z,96307.11
2019-05-01T01:26:20.622Z,96305.88
2019-05-01T01:28:49.247Z,96302.05
2019-05-01T01:31:17.872Z,96300.63
2019-05-01T01:33:46.438Z,96290.71
2019-05-01T01:36:14.991Z,96295.64
2019-05-01T01:38:43.558Z,96292.74
2019-05-01T01:41:12.455Z,96293.40
2019-05-01T01:43:42.717Z,96285.03
2019-05-01T01:46:19.061Z,96280.55
2019-05-01T01:48:47.690Z,96271.38
2019-05-01T01:51:16.604Z,96261.50
2019-05-01T01:53:45.158Z,96270.89
2019-05-01T01:56:14.071Z,96262.80
2019-05-01T01:58:42.708Z,96269.22
2019-05-01T02:01:31.012Z,96264.08
2019-05-01T02:04:01.328Z,96261.39
2019-05-01T02:06:29.902Z,96266.37
2019-05-01T02:08:58.519Z,96263.27
2019-05-01T02:11:27.156Z,96268.21
2019-05-01T02:13:56.384Z,96273.66
2019-05-01T02:16:25.748Z,96256.96
2019-05-01T02:18:54.379Z,96271.50
2019-05-01T02:21:22.916Z,96271.27
2019-05-01T02:23:51.418Z,96272.92
2019-05-01T02:26:22.207Z,96273.56
2019-05-01T02:29:08.144Z,96277.90
2019-05-01T02:31:44.331Z,96276.97
2019-05-01T02:34:13.539Z,96277.99
2019-05-01T02:36:43.582Z,96273.56
2019-05-01T02:39:12.944Z,96270.56
2019-05-01T02:41:43.516Z,96265.62
2019-05-01T02:44:17.602Z,96264.17
2019-05-01T02:46:49.314Z,96262.42
2019-05-01T02:49:29.822Z,96262.92
2019-05-01T02:51:58.565Z,96254.77
2019-05-01T02:54:28.177Z,96254.25
2019-05-01T02:57:01.771Z,96250.84
2019-05-01T02:59:33.071Z,96249.72
2019-05-01T03:02:03.175Z,96255.09
2019-05-01T03:04:33.443Z,96249.94
2019-05-01T03:07:04.112Z,96242.69
2019-05-01T03:09:33.442Z,96242.25
2019-05-01T03:12:04.157Z,96235.33
2019-05-01T03:14:35.691Z,96243.19
2019-05-01T03:17:07.270Z,96241.02
2019-05-01T03:19:37.406Z,96234.14
2019-05-01T03:22:23.958Z,96232.90
2019-05-01T03:24:52.495Z,96230.73
2019-05-01T03:27:21.101Z,96228.16
2019-05-01T03:29:49.687Z,96224.98
2019-05-01T03:32:19.714Z,96222.81
2019-05-01T03:34:52.601Z,96225.39
2019-05-01T03:37:19.124Z,96214.97
2019-05-01T03:39:47.761Z,96210.94
2019-05-01T03:42:16.304Z,96217.66
2019-05-01T03:44:45.377Z,96212.94
2019-05-01T03:47:14.097Z,96220.77
2019-05-01T03:49:42.634Z,96213.45
2019-05-01T03:52:11.202Z,96213.34
2019-05-01T03:54:39.736Z,96206.33
2019-05-01T03:57:08.512Z,96208.39
2019-05-01T03:59:37.648Z,96219.43
2019-05-01T04:02:33.178Z,96210.04
2019-05-01T04:04:53.415Z,96212.52
2019-05-01T04:07:22.033Z,96207.80
2019-05-01T04:09:50.521Z,96209.94
2019-05-01T04:12:19.251Z,96206.36
2019-05-01T04:14:48.297Z,96207.07
2019-05-01T04:17:20.877Z,96211.41
2019-05-01T04:19:49.424Z,96209.12
2019-05-01T04:22:18.249Z,96213.87
2019-05-01T04:24:47.871Z,96216.67
2019-05-01T04:27:18.151Z,96229.13
2019-05-01T04:29:48.748Z,96232.12
2019-05-01T04:32:19.232Z,96247.80
2019-05-01T04:34:49.459Z,96248.42
2019-05-01T04:37:19.668Z,96247.56
2019-05-01T04:39:48.539Z,96247.95
2019-05-01T04:42:17.442Z,96246.69
2019-05-01T04:44:45.992Z,96246.48
2019-05-01T04:47:14.625Z,96248.20
2019-05-01T04:49:43.613Z,96247.72
2019-05-01T04:52:12.213Z,96251.06
2019-05-01T04:54:40.899Z,96255.83
2019-05-01T04:57:09.429Z,96260.59
2019-05-01T04:59:38.443Z,96258.65
2019-05-01T05:02:08.947Z,96264.92
2019-05-01T05:04:38.191Z,96263.16
2019-05-01T05:07:06.736Z,96258.94
2019-05-01T05:09:46.672Z,96264.50
2019-05-01T05:12:17.783Z,96265.48
2019-05-01T05:15:11.012Z,96257.72
2019-05-01T05:20:12.881Z,96250.89
2019-05-01T05:22:43.937Z,96254.60
2019-05-01T05:25:12.628Z,96258.80
2019-05-01T05:27:41.571Z,96251.28
2019-05-01T05:30:10.181Z,96251.20
2019-05-01T05:32:40.240Z,96248.48
2019-05-01T05:35:10.364Z,96247.01
2019-05-01T05:37:43.181Z,96259.29
2019-05-01T05:40:11.992Z,96255.27
2019-05-01T05:42:40.822Z,96253.75
2019-05-01T05:45:09.687Z,96253.13
2019-05-01T05:47:38.439Z,96255.41
2019-05-01T05:50:37.164Z,96249.93
2019-05-01T05:53:20.188Z,96254.45
2019-05-01T05:55:53.386Z,96252.94
2019-05-01T05:58:38.171Z,96248.42
2019-05-01T06:01:11.278Z,96255.63
2019-05-01T06:03:50.476Z,96244.84
2019-05-01T06:06:27.096Z,96249.37
2019-05-01T06:08:58.932Z,96245.16
2019-05-01T06:11:35.356Z,96254.45
2019-05-01T06:14:26.956Z,96252.09
2019-05-01T06:20:25.890Z,96259.42
2019-05-01T06:23:10.447Z,96263.76
2019-05-01T06:25:48.508Z,96270.69
2019-05-01T06:28:29.452Z,96263.16
2019-05-01T06:30:58.377Z,96270.49
2019-05-01T06:33:52.526Z,96269.78
2019-05-01T06:38:51.302Z,96268.52
2019-05-01T06:41:19.957Z,96266.55
2019-05-01T06:43:57.138Z,96259.66
2019-05-01T06:46:44.733Z,96262.02
2019-05-01T06:49:31.205Z,96265.22
2019-05-01T06:52:02.410Z,96263.48
2019-05-01T06:54:32.691Z,96260.48
2019-05-01T06:57:03.694Z,96256.58
2019-05-01T06:59:41.716Z,96260.39
2019-05-01T07:10:43.576Z,96244.08
2019-05-01T07:13:06.764Z,96243.48
2019-05-01T07:15:37.151Z,96246.88
2019-05-01T07:18:05.793Z,96240.99
2019-05-01T07:20:36.100Z,96238.31
2019-05-01T07:23:05.239Z,96242.56
2019-05-01T07:25:34.823Z,96240.78
2019-05-01T07:28:04.195Z,96246.76
2019-05-01T07:30:37.410Z,96241.74
2019-05-01T07:33:06.171Z,96244.52
2019-05-01T07:35:36.792Z,96250.73
2019-05-01T07:38:05.002Z,96244.46
2019-05-01T07:40:33.733Z,96243.69
2019-05-01T07:43:04.267Z,96241.37
2019-05-01T07:45:43.615Z,96239.42
2019-05-01T07:48:11.112Z,96232.69
2019-05-01T07:50:40.098Z,96228.09
2019-05-01T07:53:08.655Z,96227.80
2019-05-01T07:55:37.393Z,96228.50
2019-05-01T07:58:10.288Z,96220.87
2019-05-01T08:00:58.092Z,96221.97
2019-05-01T08:03:26.675Z,96220.53
2019-05-01T08:06:11.467Z,96221.64
2019-05-01T08:08:40.969Z,96212.92
2019-05-01T08:11:10.336Z,96222.78
2019-05-01T08:13:48.676Z,96214.95
2019-05-01T08:16:17.191Z,96216.12
2019-05-01T08:18:50.043Z,96215.59
2019-05-01T08:21:35.941Z,96211.67
2019-05-01T08:24:04.608Z,96218.25
2019-05-01T08:26:35.367Z,96211.55
2019-05-01T08:29:21.335Z,96209.48
2019-05-01T08:32:09.098Z,96201.95
2019-05-01T08:35:08.376Z,96204.64
2019-05-01T08:37:36.887Z,96200.09
2019-05-01T08:40:07.391Z,96194.75
2019-05-01T08:42:40.751Z,96197.95
2019-05-01T08:45:14.788Z,96203.38
2019-05-01T08:47:44.915Z,96199.80
2019-05-01T08:50:15.363Z,96198.13
2019-05-01T08:52:47.356Z,96201.13
2019-05-01T08:55:14.391Z,96192.75
2019-05-01T08:57:42.991Z,96196.74
2019-05-01T09:00:11.813Z,96198.19
2019-05-01T09:02:43.308Z,96200.84
2019-05-01T09:05:27.825Z,96199.25
2019-05-01T09:07:42.641Z,96199.39
2019-05-01T09:10:11.852Z,96202.75
2019-05-01T09:12:42.617Z,96198.46
2019-05-01T09:15:14.723Z,96199.56
2019-05-01T09:17:44.707Z,96194.20
2019-05-01T09:20:16.787Z,96191.75
2019-05-01T09:22:45.411Z,96195.64
2019-05-01T09:25:17.046Z,96189.11
2019-05-01T09:27:52.911Z,96183.88
2019-05-01T09:30:35.092Z,96185.89
2019-05-01T09:33:03.725Z,96177.23
2019-05-01T09:35:32.320Z,96177.57
2019-05-01T09:38:00.794Z,96175.16
2019-05-01T09:40:29.260Z,96177.52
2019-05-01T09:42:59.430Z,96170.53
2019-05-01T09:45:28.843Z,96169.30
2019-05-01T09:47:57.408Z,96166.67
2019-05-01T09:50:30.331Z,96172.47
2019-05-01T09:52:59.738Z,96165.28
2019-05-01T09:55:44.838Z,96169.44
2019-05-01T09:58:13.297Z,96160.23
2019-05-01T10:00:43.366Z,96150.44
2019-05-01T10:03:13.043Z,96155.38
2019-05-01T10:05:42.907Z,96153.48
2019-05-01T10:08:12.327Z,96154.57
2019-05-01T10:10:40.899Z,96149.97
2019-05-01T10:13:11.457Z,96146.19
2019-05-01T10:15:39.927Z,96145.92
2019-05-01T10:18:09.543Z,96140.50
2019-05-01T10:20:40.751Z,96138.84
2019-05-01T10:26:04.579Z,96130.14
2019-05-01T10:28:51.633Z,96129.90
2019-05-01T10:31:42.834Z,96120.89
2019-05-01T10:34:19.221Z,96128.77
2019-05-01T10:36:49.785Z,96120.06
2019-05-01T10:39:20.762Z,96123.60
2019-05-01T10:41:49.414Z,96120.06
2019-05-01T10:44:19.726Z,96119.78
2019-05-01T10:46:52.132Z,96112.16
2019-05-01T10:49:20.687Z,96119.23
2019-05-01T10:51:49.209Z,96115.11
2019-05-01T10:54:19.663Z,96114.02
2019-05-01T10:56:48.892Z,96105.56
2019-05-01T10:59:17.478Z,96103.43
2019-05-01T11:02:07.878Z,96099.02
2019-05-01T11:04:40.232Z,96097.91
2019-05-01T11:07:08.800Z,96092.43
2019-05-01T11:09:37.295Z,96085.55
2019-05-01T11:12:05.813Z,96084.81
2019-05-01T11:14:36.569Z,96085.36
2019-05-01T11:17:14.330Z,96084.79
2019-05-01T11:19:42.896Z,96079.58
2019-05-01T11:22:11.463Z,96076.78
2019-05-01T11:24:41.506Z,96074.22
2019-05-01T11:27:10.075Z,96074.45
2019-05-01T11:29:42.624Z,96073.80
2019-05-01T11:32:29.205Z,96066.64
2019-05-01T11:35:08.060Z,96069.30
2019-05-01T11:37:46.017Z,96070.66
2019-05-01T11:40:16.453Z,96068.27
2019-05-01T11:42:44.922Z,96069.69
2019-05-01T11:47:49.261Z,96058.98
2019-05-01T11:50:17.769Z,96065.48
2019-05-01T11:52:46.329Z,96060.02
2019-05-01T11:55:14.937Z,96061.73
2019-05-01T11:57:43.488Z,96053.53
2019-05-01T12:00:14.190Z,96049.77
2019-05-01T12:02:42.655Z,96055.64
2019-05-01T12:05:11.297Z,96050.11
2019-05-01T12:07:39.787Z,96045.55
2019-05-01T12:10:08.590Z,96048.20
2019-05-01T12:12:37.086Z,96040.80
2019-05-01T12:15:07.375Z,96040.20
2019-05-01T12:17:39.980Z,96040.33
2019-05-01T12:20:08.773Z,96039.30
2019-05-01T12:22:37.280Z,96040.61
2019-05-01T12:25:06.584Z,96038.69
2019-05-01T12:27:35.066Z,96036.25
2019-05-01T12:30:05.540Z,96036.80
2019-05-01T12:32:34.099Z,96026.39
2019-05-01T12:35:02.550Z,96030.69
2019-05-01T12:37:38.661Z,96032.50
2019-05-01T12:40:08.995Z,96028.09
2019-05-01T12:42:37.685Z,96023.98
2019-05-01T12:45:13.736Z,96023.21
2019-05-01T12:47:52.625Z,96024.03
2019-05-01T12:50:22.782Z,96023.19
2019-05-01T12:53:00.250Z,96026.17
2019-05-01T12:55:45.068Z,96014.07
2019-05-01T12:58:13.611Z,96007.08
2019-05-01T13:00:46.803Z,96009.05
2019-05-01T13:03:15.800Z,96006.55
2019-05-01T13:05:44.378Z,96005.57
2019-05-01T13:08:14.379Z,95997.12
2019-05-01T13:10:42.938Z,95990.13
2019-05-01T13:13:11.554Z,95988.98
2019-05-01T13:15:40.041Z,95985.55
2019-05-01T13:18:08.513Z,95983.19
2019-05-01T13:20:37.022Z,95984.02
2019-05-01T13:23:05.690Z,95978.14
2019-05-01T13:25:34.264Z,95969.72
2019-05-01T13:28:20.689Z,95971.05
2019-05-01T13:30:59.865Z,95971.23
2019-05-01T13:33:28.398Z,95966.66
2019-05-01T13:35:57.048Z,95966.75
2019-05-01T13:38:25.557Z,95964.86
2019-05-01T13:40:54.019Z,95967.16
2019-05-01T13:43:30.127Z,95957.86
2019-05-01T13:46:08.969Z,95960.53
2019-05-01T13:48:37.537Z,95963.14
2019-05-01T13:51:06.325Z,95955.89
2019-05-01T13:53:45.116Z,95955.13
2019-05-01T13:56:22.898Z,95950.27
2019-05-01T13:58:51.370Z,95943.00
2019-05-01T14:01:21.802Z,95950.17
2019-05-01T14:03:50.351Z,95940.42
2019-05-01T14:06:18.918Z,95920.89
2019-05-01T14:08:47.401Z,95920.89
2019-05-01T14:11:16.098Z,95937.39
2019-05-01T14:13:45.727Z,95924.97
2019-05-01T14:16:14.504Z,95930.64
2019-05-01T14:18:43.069Z,95930.64
2019-05-01T14:21:13.237Z,95927.41
2019-05-01T14:23:59.638Z,95927.41
2019-05-01T14:26:33.929Z,95924.97
2019-05-01T14:29:06.939Z,95925.21
2019-05-01T14:31:37.034Z,95914.63
2019-05-01T14:34:10.414Z,95915.16
2019-05-01T14:36:39.772Z,95914.33
2019-05-01T14:42:40.405Z,95892.58
2019-05-01T14:57:25.755Z,95897.79
2019-05-01T14:59:54.253Z,95897.79
2019-05-01T15:02:48.132Z,95890.20
2019-05-01T15:05:25.871Z,95898.38
2019-05-01T15:07:54.528Z,95897.87
2019-05-01T15:10:23.062Z,95893.31
2019-05-01T15:12:53.296Z,95904.05
2019-05-01T15:15:38.308Z,95897.56
2019-05-01T15:18:37.488Z,95892.89
2019-05-01T15:21:07.835Z,95891.22
2019-05-01T15:26:40.919Z,95894.22
2019-05-01T15:29:10.038Z,95890.19
2019-05-01T15:31:38.644Z,95888.38
2019-05-01T15:34:09.401Z,95889.28
2019-05-01T15:36:37.934Z,95885.30
2019-05-01T15:39:11.368Z,95885.94
2019-05-01T15:41:47.011Z,95885.94
2019-05-01T15:44:17.166Z,95881.42
2019-05-01T15:46:45.827Z,95879.93
2019-05-01T15:49:14.396Z,95879.93
2019-05-01T15:51:43.157Z,95879.11
2019-05-01T15:54:11.740Z,95880.13
2019-05-01T15:56:40.299Z,95885.47
2019-05-01T15:59:08.804Z,95879.91
2019-05-01T16:01:37.316Z,95880.34
2019-05-01T16:04:05.956Z,95880.56
2019-05-01T16:06:34.577Z,95880.88
2019-05-01T16:09:04.973Z,95878.66
2019-05-01T16:11:50.063Z,95877.62
2019-05-01T16:14:18.726Z,95880.16
2019-05-01T16:16:47.223Z,95880.63
2019-05-01T16:19:15.734Z,95886.34
2019-05-01T16:21:44.318Z,95888.97
2019-05-01T16:24:12.897Z,95889.43
2019-05-01T16:26:41.413Z,95888.80
2019-05-01T16:29:09.902Z,95890.89
2019-05-01T16:31:38.506Z,95889.97
2019-05-01T16:34:07.042Z,95885.69
2019-05-01T16:36:35.623Z,95890.10
2019-05-01T16:39:12.774Z,95899.53
2019-05-01T16:41:43.258Z,95892.58
2019-05-01T16:44:11.843Z,95898.39
2019-05-01T16:46:41.009Z,95896.25
2019-05-01T16:49:09.619Z,95897.95
2019-05-01T16:51:38.189Z,95895.48
2019-05-01T16:54:07.595Z,95895.76
2019-05-01T16:56:36.242Z,95895.27
2019-05-01T16:59:04.991Z,95896.44
2019-05-01T17:01:35.322Z,95897.21
2019-05-01T17:04:20.805Z,95898.58
2019-05-01T17:06:51.126Z,95903.19
2019-05-01T17:09:21.522Z,95903.27
2019-05-01T17:11:50.284Z,95897.91
2019-05-01T17:14:19.616Z,95897.95
2019-05-01T17:16:48.201Z,95906.74
2019-05-01T17:19:16.824Z,95910.33
2019-05-01T17:21:45.576Z,95910.92
2019-05-01T17:24:14.090Z,95913.69
2019-05-01T17:26:42.656Z,95916.45
2019-05-01T17:29:11.196Z,95917.54
2019-05-01T17:31:39.701Z,95922.99
2019-05-01T17:34:09.785Z,95921.63
2019-05-01T17:36:38.411Z,95926.05
2019-05-01T17:39:07.086Z,95923.67
2019-05-01T17:41:35.591Z,95925.86
2019-05-01T17:44:04.447Z,95931.03
2019-05-01T17:46:33.079Z,95928.84
2019-05-01T17:49:04.261Z,95929.15
2019-05-01T17:51:31.961Z,95932.68
2019-05-01T17:54:00.469Z,95935.64
2019-05-01T17:56:28.973Z,95940.25
2019-05-01T17:58:57.463Z,95948.69
2019-05-01T18:01:45.516Z,95944.59
2019-05-01T18:04:18.389Z,95950.02
2019-05-01T18:06:48.679Z,95946.73
2019-05-01T18:09:17.871Z,95957.87
2019-05-01T18:11:47.448Z,95957.03
2019-05-01T18:14:16.679Z,95954.00
2019-05-01T18:16:45.186Z,95947.45
2019-05-01T18:19:13.857Z,95943.57
2019-05-01T18:21:46.709Z,95945.66
2019-05-01T18:24:28.203Z,95948.02
2019-05-01T18:27:14.743Z,95950.48
2019-05-01T18:29:45.861Z,95952.94
2019-05-01T18:32:22.158Z,95958.00
2019-05-01T18:34:50.654Z,95962.31
2019-05-01T18:37:20.818Z,95967.20
2019-05-01T18:39:49.394Z,95964.80
2019-05-01T18:42:17.902Z,95967.47
2019-05-01T18:44:47.404Z,95972.59
2019-05-01T18:47:16.923Z,95972.56
2019-05-01T18:49:45.528Z,95979.30
2019-05-01T18:52:14.210Z,95979.55
2019-05-01T18:54:42.721Z,95980.03
2019-05-01T18:57:11.385Z,95981.92
2019-05-01T18:59:39.913Z,95985.13
2019-05-01T19:02:08.494Z,95990.80
2019-05-01T19:04:37.118Z,95993.20
2019-05-01T19:07:05.758Z,95991.28
2019-05-01T19:09:36.605Z,96002.63
2019-05-01T19:12:06.533Z,96001.06
2019-05-01T19:14:35.116Z,96002.67
2019-05-01T19:17:03.810Z,96003.17
2019-05-01T19:19:32.465Z,96008.56
2019-05-01T19:22:02.689Z,96006.64
2019-05-01T19:24:32.439Z,96005.47
2019-05-01T19:27:01.902Z,96008.89
2019-05-01T19:29:32.108Z,96012.14
2019-05-01T19:32:00.886Z,96015.84
2019-05-01T19:34:29.389Z,96015.84
2019-05-01T19:36:57.915Z,96017.98
2019-05-01T19:39:26.472Z,96022.30
2019-05-01T19:41:55.267Z,96015.52
2019-05-01T19:44:23.714Z,96027.14
2019-05-01T19:46:52.304Z,96022.26
2019-05-01T19:49:24.614Z,96026.36
2019-05-01T19:51:55.356Z,96020.08
2019-05-01T19:54:23.116Z,96022.15
2019-05-01T19:56:52.137Z,96024.73
2019-05-01T19:59:20.605Z,96017.58
2019-05-01T20:01:49.636Z,96016.72
2019-05-01T20:04:18.293Z,96022.47
2019-05-01T20:06:46.837Z,96020.34
2019-05-01T20:09:15.748Z,96024.19
2019-05-01T20:11:44.247Z,96019.27
2019-05-01T20:14:12.814Z,96020.30
2019-05-01T20:16:41.342Z,96024.59
2019-05-01T20:19:09.901Z,96021.47
2019-05-01T20:21:41.514Z,96019.24
2019-05-01T20:24:09.263Z,96021.67
2019-05-01T20:26:39.021Z,96021.67
2019-05-01T20:29:07.920Z,96021.87
2019-05-01T20:31:36.539Z,96020.27
2019-05-01T20:34:05.106Z,96019.06
2019-05-01T20:36:33.664Z,96014.45
2019-05-01T20:39:02.234Z,96017.31
2019-05-01T20:41:30.812Z,96016.20
2019-05-01T20:43:59.306Z,96015.67
2019-05-01T20:46:28.148Z,96014.41
2019-05-01T20:49:01.416Z,96014.64
2019-05-01T20:51:27.008Z,96017.37
2019-05-01T20:53:55.588Z,96012.53
2019-05-01T20:56:26.001Z,96013.64
2019-05-01T20:58:57.831Z,96006.58
2019-05-01T21:01:28.342Z,96014.17
2019-05-01T21:04:02.601Z,96006.09
2019-05-01T21:06:39.110Z,96009.14
2019-05-01T21:09:13.553Z,96005.22
2019-05-01T21:11:42.106Z,96004.09
2019-05-01T21:14:18.127Z,96001.22
2019-05-01T21:16:42.726Z,96001.47
2019-05-01T21:19:11.263Z,95996.30
2019-05-01T21:21:39.987Z,95993.58
2019-05-01T21:24:08.554Z,95991.35
2019-05-01T21:26:37.054Z,95988.02
2019-05-01T21:29:05.726Z,95985.30
2019-05-01T21:31:34.270Z,95980.90
2019-05-01T21:34:04.258Z,95978.42
2019-05-01T21:36:32.835Z,95981.95
2019-05-01T21:39:01.359Z,95980.95
2019-05-01T21:41:29.961Z,95977.13
2019-05-01T21:43:58.501Z,95976.80
2019-05-01T21:46:27.028Z,95973.83
2019-05-01T21:48:55.664Z,95973.20
2019-05-01T21:51:24.173Z,95970.59
2019-05-01T21:53:53.008Z,95966.17
2019-05-01T21:56:21.551Z,95974.74
2019-05-01T21:58:50.049Z,95975.83
2019-05-01T22:01:18.892Z,95964.82
2019-05-01T22:03:47.463Z,95962.41
2019-05-01T22:06:16.689Z,95967.47
2019-05-01T22:08:45.358Z,95966.70
2019-05-01T22:11:13.996Z,95963.70
2019-05-01T22:13:42.498Z,95961.83
2019-05-01T22:16:12.668Z,95961.23
2019-05-01T22:18:45.670Z,95966.88
2019-05-01T22:21:16.019Z,95967.41
2019-05-01T22:23:51.700Z,95961.70
2019-05-01T22:26:20.308Z,95956.23
2019-05-01T22:28:54.762Z,95958.00
2019-05-01T22:31:38.802Z,95957.19
2019-05-01T22:34:08.933Z,95957.00
2019-05-01T22:36:37.498Z,95956.76
2019-05-01T22:39:08.290Z,95958.37
2019-05-01T22:41:36.869Z,95958.88
2019-05-01T22:44:05.798Z,95956.88
2019-05-01T22:46:39.146Z,95963.28
2019-05-01T22:49:04.938Z,95964.64
2019-05-01T22:51:33.472Z,95962.52
2019-05-01T22:54:02.028Z,95967.10
2019-05-01T22:56:30.530Z,95958.89
2019-05-01T22:58:59.316Z,95963.16
2019-05-01T23:01:28.185Z,95963.34
2019-05-01T23:03:58.400Z,95961.63
2019-05-01T23:06:27.268Z,95961.84
2019-05-01T23:08:55.896Z,95959.61
2019-05-01T23:11:26.266Z,95960.19
2019-05-01T23:13:54.969Z,95958.61
2019-05-01T23:16:28.680Z,95960.00
2019-05-01T23:18:55.577Z,95964.00
2019-05-01T23:21:24.157Z,95953.11
2019-05-01T23:23:56.826Z,95956.34
2019-05-01T23:26:22.931Z,95954.41
2019-05-01T23:28:51.743Z,95954.33
2019-05-01T23:31:20.702Z,95947.05
2019-05-01T23:33:50.677Z,95947.14
2019-05-01T23:36:23.775Z,95944.84
2019-05-01T23:38:49.719Z,95939.13
2019-05-01T23:41:18.405Z,95940.56
2019-05-01T23:43:46.924Z,95942.39
2019-05-01T23:46:15.524Z,95935.31
2019-05-01T23:48:44.030Z,95939.23
2019-05-01T23:51:12.561Z,95937.00
2019-05-01T23:53:44.352Z,95935.86
2019-05-01T23:56:11.408Z,95937.08
2019-05-01T23:58:39.910Z,95932.50
